首页
METAR-TAF:

METAR-TAF

机场 :

瑟堡, 法国

纬度: 49-39N, 经度: 001-28W, 海拔: 138米

当前天气观测

该预报发布于38分钟前的11:00 UTC
风速16节,风向北转西北,有时为28节阵风,在西之间变化
温度 6°C
湿度 81%
气压 1000 hPa
能见度10公里或以上
阴天层高于1200英尺

METAR: LFRC 271100Z AUTO 33016G28KT 270V360 9999 OVC012 06/03 Q1000 TEMPO 4000 SHRA BECMG 33025G42KT BKN020

时间: 12:38 (11:38 UTC)

预报

该预报发布于2小时和32分钟前的09:06 UTC
预报有效从27日的 09点(UTC)到 27日的 18点(UTC)
风速25节,风向北转西北,有时为42节阵风
能见度10公里或以上
多云层高于1200英尺
短暂存在
从 27日的 09点(UTC)到 27日的 10点(UTC)
能見度: 3000
多云层高于400英尺
毛毛雨
几率 30% :
短暂存在
从 27日的 10点(UTC)到 27日的 12点(UTC)
能見度: 4000
阵雨
成为
从 27日的 10点(UTC)到 27日的 12点(UTC)
多云层高于2000英尺
成为
从 27日的 13点(UTC)到 27日的 15点(UTC)
风速18节,风向西北,有时为30节阵风

TAF: LFRC 270906Z 2709/2718 33025G42KT 9999 BKN012 TEMPO 2709/2710 3000 DZ BKN004 PROB30 TEMPO 2710/2712 4000 SHRA BECMG 2710/2712 BKN020 BECMG 2713/2715 31018G30KT

超过4000个机场的气象观测和天气预报(METAR&TAF报告)。

可查询的气象台以黄色和红色小点在地图上表示。

将鼠标移到小点上方,可查看气象台名称。

然后点击查看天气观测和预报。

如需切换地图:点击带黑十字的绿色按钮放大地图;点击带横线的绿色按钮缩小地图;或者点击绿色箭头查看邻近地区的地图。


METAR-TAF: